This is the latest recevied weather packets stored in our database for station/object EA6AMI-5. If no packets are shown the sender has not sent any weather packets the latest 10 day(s).
| Time | Temp. | Humidity | Pressure | Rain* | Wind** | Luminosity | Snow |
|---|---|---|---|---|---|---|---|
| 1777486684 | 20.56° C | 67% | 1011.7 hPa | 0 mm | - | 10 W/m² | - |
| 1777486143 | 21.11° C | 65% | 1011.5 hPa | 0 mm | - | 18 W/m² | - |
| 1777485604 | 21.67° C | 63% | 1011.5 hPa | 0 mm | - | 28 W/m² | - |
| 1777485244 | 21.67° C | 64% | 1011.6 hPa | 0 mm | - | 36 W/m² | - |
| 1777484703 | 22.22° C | 64% | 1011.2 hPa | 0 mm | - | 45 W/m² | - |
| 1777484164 | 22.22° C | 62% | 1011.2 hPa | 0 mm | - | 52 W/m² | - |
| 1777483623 | 22.78° C | 62% | 1011.1 hPa | 0 mm | - | 61 W/m² | - |
| 1777483084 | 22.78° C | 61% | 1011.1 hPa | 0 mm | - | 71 W/m² | - |
| 1777482543 | 22.78° C | 61% | 1011 hPa | 0 mm | - | 82 W/m² | - |
| 1777482004 | 22.22° C | 61% | 1011 hPa | 0 mm | - | 99 W/m² | - |
| 1777481644 | 22.78° C | 60% | 1011.2 hPa | 0 mm | - | 116 W/m² | - |
| 1777481103 | 23.33° C | 58% | 1011.2 hPa | 0 mm | - | 102 W/m² | - |
| 1777480564 | 22.78° C | 58% | 1011.1 hPa | 0 mm | - | 131 W/m² | - |
| 1777480024 | 22.78° C | 58% | 1011.4 hPa | 0 mm | - | 154 W/m² | - |
| 1777479483 | 22.78° C | 58% | 1011.5 hPa | 0 mm | - | 162 W/m² | - |
| 1777478944 | 22.78° C | 57% | 1011.4 hPa | 0 mm | - | 183 W/m² | - |
| 1777478404 | 21.67° C | 59% | 1011.2 hPa | 0 mm | - | 365 W/m² | - |
| 1777478044 | 21.67° C | 59% | 1011.2 hPa | 0 mm | - | 176 W/m² | - |
| 1777477504 | 21.67° C | 58% | 1011.5 hPa | 0 mm | - | 158 W/m² | - |
| 1777476963 | 21.67° C | 58% | 1011.4 hPa | 0 mm | - | 138 W/m² | - |
| 1777476423 | 21.67° C | 61% | 1011.5 hPa | 0 mm | - | 187 W/m² | - |
| 1777475883 | 22.22° C | 59% | 1011.3 hPa | 0 mm | - | 156 W/m² | - |
| 1777475344 | 24.44° C | 51% | 1011.2 hPa | 0 mm | - | 231 W/m² | - |
| 1777474804 | 24.44° C | 44% | 1011 hPa | 0 mm | - | 257 W/m² | - |
| 1777474443 | 24.44° C | 43% | 1011 hPa | 0 mm | - | 309 W/m² | - |
* Rain latest hour (hover to see other rain measurements)
** Current wind speed in m/s (hover to see current wind gust speed)